sensor_id;sensor_type;location;lat;lon;timestamp;P1;durP1;ratioP1;P2;durP2;ratioP2
20826;SDS011;10574;52.508;13.236;2023-05-07T00:01:16;2.83;;;2.20;;
20826;SDS011;10574;52.508;13.236;2023-05-07T00:03:44;7.83;;;2.73;;
20826;SDS011;10574;52.508;13.236;2023-05-07T00:06:12;1.73;;;0.90;;
20826;SDS011;10574;52.508;13.236;2023-05-07T00:08:40;4.43;;;2.53;;
20826;SDS011;10574;52.508;13.236;2023-05-07T00:11:07;12.63;;;1.67;;
20826;SDS011;10574;52.508;13.236;2023-05-07T00:13:35;5.10;;;2.20;;
20826;SDS011;10574;52.508;13.236;2023-05-07T00:16:03;4.20;;;1.10;;
20826;SDS011;10574;52.508;13.236;2023-05-07T00:18:31;3.47;;;2.33;;
20826;SDS011;10574;52.508;13.236;2023-05-07T00:20:58;8.30;;;3.30;;
20826;SDS011;10574;52.508;13.236;2023-05-07T00:23:26;2.87;;;2.47;;
20826;SDS011;10574;52.508;13.236;2023-05-07T00:25:54;2.40;;;1.70;;
20826;SDS011;10574;52.508;13.236;2023-05-07T00:28:22;1.77;;;1.40;;
20826;SDS011;10574;52.508;13.236;2023-05-07T00:30:50;2.37;;;1.57;;
20826;SDS011;10574;52.508;13.236;2023-05-07T00:33:17;3.80;;;2.17;;
20826;SDS011;10574;52.508;13.236;2023-05-07T00:35:46;2.13;;;1.90;;
20826;SDS011;10574;52.508;13.236;2023-05-07T00:38:14;0.73;;;0.73;;
20826;SDS011;10574;52.508;13.236;2023-05-07T00:40:43;3.43;;;2.13;;
20826;SDS011;10574;52.508;13.236;2023-05-07T00:43:11;8.37;;;1.67;;
20826;SDS011;10574;52.508;13.236;2023-05-07T00:45:39;2.33;;;2.13;;
20826;SDS011;10574;52.508;13.236;2023-05-07T00:48:06;1.60;;;1.50;;
20826;SDS011;10574;52.508;13.236;2023-05-07T00:50:34;2.43;;;1.90;;
20826;SDS011;10574;52.508;13.236;2023-05-07T00:53:02;4.07;;;1.27;;
20826;SDS011;10574;52.508;13.236;2023-05-07T00:55:30;1.70;;;1.60;;
20826;SDS011;10574;52.508;13.236;2023-05-07T00:57:59;2.17;;;1.70;;
20826;SDS011;10574;52.508;13.236;2023-05-07T01:00:26;2.57;;;1.90;;
20826;SDS011;10574;52.508;13.236;2023-05-07T01:02:54;3.20;;;2.60;;
20826;SDS011;10574;52.508;13.236;2023-05-07T01:05:22;2.53;;;1.50;;
20826;SDS011;10574;52.508;13.236;2023-05-07T01:07:51;3.77;;;1.97;;
20826;SDS011;10574;52.508;13.236;2023-05-07T01:10:20;2.30;;;1.43;;
20826;SDS011;10574;52.508;13.236;2023-05-07T01:12:48;4.47;;;1.13;;
20826;SDS011;10574;52.508;13.236;2023-05-07T01:15:18;4.63;;;1.43;;
20826;SDS011;10574;52.508;13.236;2023-05-07T01:17:45;2.13;;;1.90;;
20826;SDS011;10574;52.508;13.236;2023-05-07T01:20:13;1.53;;;1.10;;
20826;SDS011;10574;52.508;13.236;2023-05-07T01:22:41;1.20;;;0.93;;
20826;SDS011;10574;52.508;13.236;2023-05-07T01:25:10;2.67;;;1.40;;
20826;SDS011;10574;52.508;13.236;2023-05-07T01:27:39;2.97;;;1.43;;
20826;SDS011;10574;52.508;13.236;2023-05-07T01:30:07;3.03;;;1.67;;
20826;SDS011;10574;52.508;13.236;2023-05-07T01:32:38;2.20;;;0.73;;
20826;SDS011;10574;52.508;13.236;2023-05-07T01:35:16;3.03;;;1.30;;
20826;SDS011;10574;52.508;13.236;2023-05-07T01:37:46;1.43;;;1.30;;
20826;SDS011;10574;52.508;13.236;2023-05-07T01:40:14;5.00;;;1.67;;
20826;SDS011;10574;52.508;13.236;2023-05-07T01:42:43;2.83;;;1.40;;
20826;SDS011;10574;52.508;13.236;2023-05-07T01:45:12;1.73;;;1.03;;
20826;SDS011;10574;52.508;13.236;2023-05-07T01:47:40;1.53;;;1.23;;
20826;SDS011;10574;52.508;13.236;2023-05-07T01:50:09;1.33;;;1.07;;
20826;SDS011;10574;52.508;13.236;2023-05-07T01:52:40;1.40;;;1.30;;
20826;SDS011;10574;52.508;13.236;2023-05-07T01:55:08;2.83;;;1.63;;
20826;SDS011;10574;52.508;13.236;2023-05-07T01:57:36;1.93;;;1.37;;
20826;SDS011;10574;52.508;13.236;2023-05-07T02:00:04;2.87;;;2.00;;
20826;SDS011;10574;52.508;13.236;2023-05-07T02:02:34;3.00;;;1.47;;
20826;SDS011;10574;52.508;13.236;2023-05-07T02:05:02;2.63;;;1.43;;
20826;SDS011;10574;52.508;13.236;2023-05-07T02:07:29;3.57;;;1.63;;
20826;SDS011;10574;52.508;13.236;2023-05-07T02:09:57;5.57;;;1.87;;
20826;SDS011;10574;52.508;13.236;2023-05-07T02:12:25;7.67;;;1.47;;
20826;SDS011;10574;52.508;13.236;2023-05-07T02:14:53;10.87;;;3.80;;
20826;SDS011;10574;52.508;13.236;2023-05-07T02:17:21;3.63;;;1.17;;
20826;SDS011;10574;52.508;13.236;2023-05-07T02:19:48;6.03;;;2.13;;
20826;SDS011;10574;52.508;13.236;2023-05-07T02:22:16;3.70;;;2.10;;
20826;SDS011;10574;52.508;13.236;2023-05-07T02:24:44;5.07;;;2.27;;
20826;SDS011;10574;52.508;13.236;2023-05-07T02:27:12;1.37;;;1.27;;
20826;SDS011;10574;52.508;13.236;2023-05-07T02:29:40;1.07;;;0.70;;
20826;SDS011;10574;52.508;13.236;2023-05-07T02:32:07;6.93;;;1.03;;
20826;SDS011;10574;52.508;13.236;2023-05-07T02:34:35;1.47;;;1.20;;
20826;SDS011;10574;52.508;13.236;2023-05-07T02:37:03;2.37;;;1.27;;
20826;SDS011;10574;52.508;13.236;2023-05-07T02:39:30;1.70;;;1.07;;
20826;SDS011;10574;52.508;13.236;2023-05-07T02:41:58;5.40;;;1.87;;
20826;SDS011;10574;52.508;13.236;2023-05-07T02:44:26;3.30;;;2.20;;
20826;SDS011;10574;52.508;13.236;2023-05-07T02:46:56;1.63;;;1.53;;
20826;SDS011;10574;52.508;13.236;2023-05-07T02:49:23;2.43;;;1.17;;
20826;SDS011;10574;52.508;13.236;2023-05-07T02:51:51;5.40;;;1.33;;
20826;SDS011;10574;52.508;13.236;2023-05-07T02:54:19;5.37;;;2.87;;
20826;SDS011;10574;52.508;13.236;2023-05-07T02:56:46;4.13;;;2.10;;
20826;SDS011;10574;52.508;13.236;2023-05-07T02:59:14;9.50;;;2.03;;
20826;SDS011;10574;52.508;13.236;2023-05-07T03:01:42;1.17;;;1.07;;
20826;SDS011;10574;52.508;13.236;2023-05-07T03:04:11;1.27;;;0.83;;
20826;SDS011;10574;52.508;13.236;2023-05-07T03:06:38;2.27;;;1.67;;
20826;SDS011;10574;52.508;13.236;2023-05-07T03:09:06;12.07;;;2.10;;
20826;SDS011;10574;52.508;13.236;2023-05-07T03:11:34;5.40;;;1.97;;
20826;SDS011;10574;52.508;13.236;2023-05-07T03:14:02;2.40;;;2.20;;
20826;SDS011;10574;52.508;13.236;2023-05-07T03:16:31;1.57;;;1.47;;
20826;SDS011;10574;52.508;13.236;2023-05-07T03:18:58;1.50;;;1.40;;
20826;SDS011;10574;52.508;13.236;2023-05-07T03:21:26;2.20;;;1.20;;
20826;SDS011;10574;52.508;13.236;2023-05-07T03:23:54;2.53;;;1.77;;
20826;SDS011;10574;52.508;13.236;2023-05-07T03:26:22;2.87;;;1.40;;
20826;SDS011;10574;52.508;13.236;2023-05-07T03:28:49;2.77;;;1.17;;
20826;SDS011;10574;52.508;13.236;2023-05-07T03:31:17;6.13;;;1.60;;
20826;SDS011;10574;52.508;13.236;2023-05-07T03:33:52;8.13;;;2.00;;
20826;SDS011;10574;52.508;13.236;2023-05-07T03:36:20;3.50;;;1.40;;
20826;SDS011;10574;52.508;13.236;2023-05-07T03:38:49;2.67;;;2.13;;
20826;SDS011;10574;52.508;13.236;2023-05-07T03:41:16;1.63;;;1.13;;
20826;SDS011;10574;52.508;13.236;2023-05-07T03:43:44;1.97;;;1.53;;
20826;SDS011;10574;52.508;13.236;2023-05-07T03:46:12;2.17;;;1.37;;
20826;SDS011;10574;52.508;13.236;2023-05-07T03:48:40;1.13;;;1.03;;
20826;SDS011;10574;52.508;13.236;2023-05-07T03:51:07;2.40;;;1.00;;
20826;SDS011;10574;52.508;13.236;2023-05-07T03:53:35;2.40;;;1.13;;
20826;SDS011;10574;52.508;13.236;2023-05-07T03:56:03;1.93;;;1.67;;
20826;SDS011;10574;52.508;13.236;2023-05-07T03:58:32;1.77;;;0.97;;
20826;SDS011;10574;52.508;13.236;2023-05-07T04:01:00;2.30;;;1.77;;
20826;SDS011;10574;52.508;13.236;2023-05-07T04:03:29;1.03;;;1.03;;
20826;SDS011;10574;52.508;13.236;2023-05-07T04:05:56;1.23;;;1.13;;
20826;SDS011;10574;52.508;13.236;2023-05-07T04:08:24;0.93;;;0.90;;
20826;SDS011;10574;52.508;13.236;2023-05-07T04:10:55;3.33;;;0.83;;
20826;SDS011;10574;52.508;13.236;2023-05-07T04:13:23;1.10;;;0.97;;
20826;SDS011;10574;52.508;13.236;2023-05-07T04:15:52;1.40;;;1.30;;
20826;SDS011;10574;52.508;13.236;2023-05-07T04:18:21;1.17;;;1.10;;
20826;SDS011;10574;52.508;13.236;2023-05-07T04:20:49;0.83;;;0.83;;
20826;SDS011;10574;52.508;13.236;2023-05-07T04:23:16;1.93;;;1.53;;
20826;SDS011;10574;52.508;13.236;2023-05-07T04:25:44;2.50;;;1.33;;
20826;SDS011;10574;52.508;13.236;2023-05-07T04:28:12;3.03;;;1.77;;
20826;SDS011;10574;52.508;13.236;2023-05-07T04:30:40;3.93;;;1.93;;
20826;SDS011;10574;52.508;13.236;2023-05-07T04:33:07;0.67;;;0.57;;
20826;SDS011;10574;52.508;13.236;2023-05-07T04:35:35;8.27;;;1.57;;
20826;SDS011;10574;52.508;13.236;2023-05-07T04:38:03;2.07;;;1.57;;
20826;SDS011;10574;52.508;13.236;2023-05-07T04:40:30;1.80;;;1.70;;
20826;SDS011;10574;52.508;13.236;2023-05-07T04:42:58;1.47;;;1.37;;
20826;SDS011;10574;52.508;13.236;2023-05-07T04:45:26;8.00;;;1.60;;
20826;SDS011;10574;52.508;13.236;2023-05-07T04:47:54;1.93;;;0.87;;
20826;SDS011;10574;52.508;13.236;2023-05-07T04:50:22;3.93;;;1.00;;
20826;SDS011;10574;52.508;13.236;2023-05-07T04:52:50;1.13;;;0.97;;
20826;SDS011;10574;52.508;13.236;2023-05-07T04:55:18;2.60;;;1.43;;
20826;SDS011;10574;52.508;13.236;2023-05-07T04:57:46;1.30;;;1.20;;
20826;SDS011;10574;52.508;13.236;2023-05-07T05:00:14;1.47;;;1.23;;
20826;SDS011;10574;52.508;13.236;2023-05-07T05:05:29;1.93;;;1.40;;
20826;SDS011;10574;52.508;13.236;2023-05-07T05:07:57;1.27;;;0.87;;
20826;SDS011;10574;52.508;13.236;2023-05-07T05:10:24;0.80;;;0.80;;
20826;SDS011;10574;52.508;13.236;2023-05-07T05:12:52;1.03;;;0.93;;
20826;SDS011;10574;52.508;13.236;2023-05-07T05:15:20;2.67;;;1.23;;
20826;SDS011;10574;52.508;13.236;2023-05-07T05:17:47;0.70;;;0.70;;
20826;SDS011;10574;52.508;13.236;2023-05-07T05:20:15;1.33;;;0.73;;
20826;SDS011;10574;52.508;13.236;2023-05-07T05:22:43;1.20;;;0.73;;
20826;SDS011;10574;52.508;13.236;2023-05-07T05:25:11;1.60;;;0.80;;
20826;SDS011;10574;52.508;13.236;2023-05-07T05:27:38;0.60;;;0.50;;
20826;SDS011;10574;52.508;13.236;2023-05-07T05:30:07;5.53;;;1.77;;
20826;SDS011;10574;52.508;13.236;2023-05-07T05:32:35;3.03;;;1.33;;
20826;SDS011;10574;52.508;13.236;2023-05-07T05:35:02;0.80;;;0.80;;
20826;SDS011;10574;52.508;13.236;2023-05-07T05:37:30;1.70;;;1.00;;
20826;SDS011;10574;52.508;13.236;2023-05-07T05:39:58;0.70;;;0.70;;
20826;SDS011;10574;52.508;13.236;2023-05-07T05:42:26;1.60;;;0.93;;
20826;SDS011;10574;52.508;13.236;2023-05-07T05:44:53;1.10;;;1.03;;
20826;SDS011;10574;52.508;13.236;2023-05-07T05:47:21;1.50;;;1.40;;
20826;SDS011;10574;52.508;13.236;2023-05-07T05:49:49;0.83;;;0.83;;
20826;SDS011;10574;52.508;13.236;2023-05-07T05:52:17;1.23;;;1.13;;
20826;SDS011;10574;52.508;13.236;2023-05-07T05:54:45;2.13;;;1.53;;
20826;SDS011;10574;52.508;13.236;2023-05-07T05:57:13;2.13;;;0.90;;
20826;SDS011;10574;52.508;13.236;2023-05-07T05:59:41;0.50;;;0.50;;
20826;SDS011;10574;52.508;13.236;2023-05-07T06:02:09;0.63;;;0.63;;
20826;SDS011;10574;52.508;13.236;2023-05-07T06:04:37;1.73;;;1.23;;
20826;SDS011;10574;52.508;13.236;2023-05-07T06:07:04;1.47;;;1.07;;
20826;SDS011;10574;52.508;13.236;2023-05-07T06:09:32;1.03;;;0.90;;
20826;SDS011;10574;52.508;13.236;2023-05-07T06:12:00;2.53;;;0.93;;
20826;SDS011;10574;52.508;13.236;2023-05-07T06:14:27;8.23;;;1.57;;
20826;SDS011;10574;52.508;13.236;2023-05-07T06:16:55;2.43;;;0.70;;
20826;SDS011;10574;52.508;13.236;2023-05-07T06:19:23;0.87;;;0.83;;
20826;SDS011;10574;52.508;13.236;2023-05-07T06:21:52;1.50;;;1.07;;
20826;SDS011;10574;52.508;13.236;2023-05-07T06:24:22;2.30;;;0.97;;
20826;SDS011;10574;52.508;13.236;2023-05-07T06:26:49;1.33;;;1.10;;
20826;SDS011;10574;52.508;13.236;2023-05-07T06:29:17;1.63;;;0.93;;
20826;SDS011;10574;52.508;13.236;2023-05-07T06:31:45;2.57;;;1.03;;
20826;SDS011;10574;52.508;13.236;2023-05-07T06:34:13;1.40;;;0.77;;
20826;SDS011;10574;52.508;13.236;2023-05-07T06:36:40;0.73;;;0.73;;
20826;SDS011;10574;52.508;13.236;2023-05-07T06:39:08;2.50;;;0.90;;
20826;SDS011;10574;52.508;13.236;2023-05-07T06:41:36;0.93;;;0.93;;
20826;SDS011;10574;52.508;13.236;2023-05-07T06:44:04;0.37;;;0.37;;
20826;SDS011;10574;52.508;13.236;2023-05-07T06:46:32;0.50;;;0.50;;
20826;SDS011;10574;52.508;13.236;2023-05-07T06:49:00;0.60;;;0.60;;
20826;SDS011;10574;52.508;13.236;2023-05-07T06:51:28;1.17;;;1.07;;
20826;SDS011;10574;52.508;13.236;2023-05-07T06:53:56;6.23;;;1.13;;
20826;SDS011;10574;52.508;13.236;2023-05-07T06:56:23;1.43;;;1.07;;
20826;SDS011;10574;52.508;13.236;2023-05-07T06:58:51;2.23;;;1.13;;
20826;SDS011;10574;52.508;13.236;2023-05-07T07:01:19;0.67;;;0.67;;
20826;SDS011;10574;52.508;13.236;2023-05-07T07:03:46;2.60;;;1.70;;
20826;SDS011;10574;52.508;13.236;2023-05-07T07:06:14;1.70;;;1.20;;
20826;SDS011;10574;52.508;13.236;2023-05-07T07:08:42;1.60;;;1.33;;
20826;SDS011;10574;52.508;13.236;2023-05-07T07:11:09;2.53;;;1.07;;
20826;SDS011;10574;52.508;13.236;2023-05-07T07:13:37;1.30;;;1.07;;
20826;SDS011;10574;52.508;13.236;2023-05-07T07:16:06;1.70;;;1.30;;
20826;SDS011;10574;52.508;13.236;2023-05-07T07:18:33;0.23;;;0.23;;
20826;SDS011;10574;52.508;13.236;2023-05-07T07:21:01;1.47;;;0.93;;
20826;SDS011;10574;52.508;13.236;2023-05-07T07:23:29;0.63;;;0.63;;
20826;SDS011;10574;52.508;13.236;2023-05-07T07:25:57;5.00;;;1.40;;
20826;SDS011;10574;52.508;13.236;2023-05-07T07:28:25;1.80;;;1.40;;
20826;SDS011;10574;52.508;13.236;2023-05-07T07:30:52;0.70;;;0.70;;
20826;SDS011;10574;52.508;13.236;2023-05-07T07:33:20;3.60;;;1.33;;
20826;SDS011;10574;52.508;13.236;2023-05-07T07:35:48;0.70;;;0.70;;
20826;SDS011;10574;52.508;13.236;2023-05-07T07:38:15;1.60;;;1.13;;
20826;SDS011;10574;52.508;13.236;2023-05-07T07:40:43;7.40;;;1.47;;
20826;SDS011;10574;52.508;13.236;2023-05-07T07:43:11;0.60;;;0.60;;
20826;SDS011;10574;52.508;13.236;2023-05-07T07:45:39;1.37;;;1.00;;
20826;SDS011;10574;52.508;13.236;2023-05-07T07:48:07;0.73;;;0.73;;
20826;SDS011;10574;52.508;13.236;2023-05-07T07:50:35;0.77;;;0.77;;
20826;SDS011;10574;52.508;13.236;2023-05-07T07:53:03;1.37;;;1.03;;
20826;SDS011;10574;52.508;13.236;2023-05-07T07:55:30;1.17;;;0.87;;
20826;SDS011;10574;52.508;13.236;2023-05-07T07:57:58;3.00;;;1.10;;
20826;SDS011;10574;52.508;13.236;2023-05-07T08:00:26;0.50;;;0.50;;
20826;SDS011;10574;52.508;13.236;2023-05-07T08:02:53;7.90;;;1.33;;
20826;SDS011;10574;52.508;13.236;2023-05-07T08:05:21;1.73;;;0.87;;
20826;SDS011;10574;52.508;13.236;2023-05-07T08:07:49;1.10;;;0.77;;
20826;SDS011;10574;52.508;13.236;2023-05-07T08:10:18;1.03;;;0.80;;
20826;SDS011;10574;52.508;13.236;2023-05-07T08:12:50;0.53;;;0.40;;
20826;SDS011;10574;52.508;13.236;2023-05-07T08:15:18;0.70;;;0.67;;
20826;SDS011;10574;52.508;13.236;2023-05-07T08:17:46;2.10;;;1.23;;
20826;SDS011;10574;52.508;13.236;2023-05-07T08:20:13;2.37;;;1.20;;
20826;SDS011;10574;52.508;13.236;2023-05-07T08:22:41;0.93;;;0.80;;
20826;SDS011;10574;52.508;13.236;2023-05-07T08:25:09;0.30;;;0.20;;
20826;SDS011;10574;52.508;13.236;2023-05-07T08:27:37;0.30;;;0.30;;
20826;SDS011;10574;52.508;13.236;2023-05-07T08:30:05;2.83;;;0.67;;
20826;SDS011;10574;52.508;13.236;2023-05-07T08:32:33;0.40;;;0.40;;
20826;SDS011;10574;52.508;13.236;2023-05-07T08:35:01;6.10;;;0.30;;
20826;SDS011;10574;52.508;13.236;2023-05-07T08:37:29;1.10;;;0.80;;
20826;SDS011;10574;52.508;13.236;2023-05-07T08:39:56;6.63;;;0.90;;
20826;SDS011;10574;52.508;13.236;2023-05-07T08:42:25;3.30;;;0.50;;
20826;SDS011;10574;52.508;13.236;2023-05-07T08:44:55;0.20;;;0.20;;
20826;SDS011;10574;52.508;13.236;2023-05-07T08:47:28;0.33;;;0.33;;
20826;SDS011;10574;52.508;13.236;2023-05-07T08:49:57;0.83;;;0.40;;
20826;SDS011;10574;52.508;13.236;2023-05-07T08:52:26;7.60;;;1.00;;
20826;SDS011;10574;52.508;13.236;2023-05-07T08:54:54;0.50;;;0.40;;
20826;SDS011;10574;52.508;13.236;2023-05-07T08:57:22;0.70;;;0.70;;
20826;SDS011;10574;52.508;13.236;2023-05-07T08:59:50;0.47;;;0.47;;
20826;SDS011;10574;52.508;13.236;2023-05-07T09:02:17;2.63;;;0.57;;
20826;SDS011;10574;52.508;13.236;2023-05-07T09:04:45;1.70;;;1.27;;
20826;SDS011;10574;52.508;13.236;2023-05-07T09:07:28;0.97;;;0.40;;
20826;SDS011;10574;52.508;13.236;2023-05-07T09:09:57;1.33;;;0.70;;
20826;SDS011;10574;52.508;13.236;2023-05-07T09:12:27;14.63;;;0.73;;
20826;SDS011;10574;52.508;13.236;2023-05-07T09:14:54;0.20;;;0.13;;
20826;SDS011;10574;52.508;13.236;2023-05-07T09:17:22;1.33;;;1.23;;
20826;SDS011;10574;52.508;13.236;2023-05-07T09:19:50;0.27;;;0.27;;
20826;SDS011;10574;52.508;13.236;2023-05-07T09:22:19;0.40;;;0.40;;
20826;SDS011;10574;52.508;13.236;2023-05-07T09:24:47;4.60;;;1.17;;
20826;SDS011;10574;52.508;13.236;2023-05-07T09:27:17;0.50;;;0.50;;
20826;SDS011;10574;52.508;13.236;2023-05-07T09:29:45;0.57;;;0.40;;
20826;SDS011;10574;52.508;13.236;2023-05-07T09:32:12;0.20;;;0.20;;
20826;SDS011;10574;52.508;13.236;2023-05-07T09:34:42;1.13;;;0.80;;
20826;SDS011;10574;52.508;13.236;2023-05-07T09:37:10;2.57;;;0.90;;
20826;SDS011;10574;52.508;13.236;2023-05-07T09:39:40;0.20;;;0.20;;
20826;SDS011;10574;52.508;13.236;2023-05-07T09:42:15;0.30;;;0.30;;
20826;SDS011;10574;52.508;13.236;2023-05-07T09:44:44;0.53;;;0.47;;
20826;SDS011;10574;52.508;13.236;2023-05-07T09:47:14;0.50;;;0.50;;
20826;SDS011;10574;52.508;13.236;2023-05-07T09:49:44;0.87;;;0.70;;
20826;SDS011;10574;52.508;13.236;2023-05-07T09:52:14;1.63;;;0.73;;
20826;SDS011;10574;52.508;13.236;2023-05-07T09:54:42;2.47;;;0.50;;
20826;SDS011;10574;52.508;13.236;2023-05-07T09:57:11;0.30;;;0.30;;
20826;SDS011;10574;52.508;13.236;2023-05-07T09:59:40;1.40;;;0.43;;
20826;SDS011;10574;52.508;13.236;2023-05-07T10:02:10;0.73;;;0.37;;
20826;SDS011;10574;52.508;13.236;2023-05-07T10:04:39;1.27;;;0.87;;
20826;SDS011;10574;52.508;13.236;2023-05-07T10:07:08;0.73;;;0.73;;
20826;SDS011;10574;52.508;13.236;2023-05-07T10:09:36;0.93;;;0.10;;
20826;SDS011;10574;52.508;13.236;2023-05-07T10:12:05;0.97;;;0.50;;
20826;SDS011;10574;52.508;13.236;2023-05-07T10:14:33;0.50;;;0.50;;
20826;SDS011;10574;52.508;13.236;2023-05-07T10:17:03;1.27;;;0.67;;
20826;SDS011;10574;52.508;13.236;2023-05-07T10:19:30;0.40;;;0.40;;
20826;SDS011;10574;52.508;13.236;2023-05-07T10:22:03;0.27;;;0.27;;
20826;SDS011;10574;52.508;13.236;2023-05-07T10:24:35;0.50;;;0.37;;
20826;SDS011;10574;52.508;13.236;2023-05-07T10:27:10;1.20;;;0.60;;
20826;SDS011;10574;52.508;13.236;2023-05-07T10:35:09;0.30;;;0.30;;
20826;SDS011;10574;52.508;13.236;2023-05-07T10:37:37;0.33;;;0.20;;
20826;SDS011;10574;52.508;13.236;2023-05-07T10:40:05;0.30;;;0.30;;
20826;SDS011;10574;52.508;13.236;2023-05-07T10:42:33;0.63;;;0.60;;
20826;SDS011;10574;52.508;13.236;2023-05-07T10:45:14;2.87;;;0.40;;
20826;SDS011;10574;52.508;13.236;2023-05-07T10:50:36;1.27;;;0.50;;
20826;SDS011;10574;52.508;13.236;2023-05-07T10:56:23;0.20;;;0.20;;
20826;SDS011;10574;52.508;13.236;2023-05-07T10:58:39;0.10;;;0.10;;
20826;SDS011;10574;52.508;13.236;2023-05-07T11:01:07;0.10;;;0.10;;
20826;SDS011;10574;52.508;13.236;2023-05-07T11:03:36;0.67;;;0.30;;
20826;SDS011;10574;52.508;13.236;2023-05-07T11:06:25;0.33;;;0.33;;
20826;SDS011;10574;52.508;13.236;2023-05-07T11:14:13;1.07;;;0.60;;
20826;SDS011;10574;52.508;13.236;2023-05-07T11:16:42;0.30;;;0.20;;
20826;SDS011;10574;52.508;13.236;2023-05-07T11:19:11;0.43;;;0.20;;
20826;SDS011;10574;52.508;13.236;2023-05-07T11:21:41;0.10;;;0.10;;
20826;SDS011;10574;52.508;13.236;2023-05-07T11:24:09;0.17;;;0.17;;
20826;SDS011;10574;52.508;13.236;2023-05-07T11:26:49;2.23;;;0.40;;
20826;SDS011;10574;52.508;13.236;2023-05-07T11:29:18;0.20;;;0.20;;
20826;SDS011;10574;52.508;13.236;2023-05-07T11:31:51;0.50;;;0.30;;
20826;SDS011;10574;52.508;13.236;2023-05-07T11:34:22;1.90;;;0.40;;
20826;SDS011;10574;52.508;13.236;2023-05-07T11:36:51;0.30;;;0.17;;
20826;SDS011;10574;52.508;13.236;2023-05-07T11:39:22;0.50;;;0.40;;
20826;SDS011;10574;52.508;13.236;2023-05-07T11:41:51;0.87;;;0.57;;
20826;SDS011;10574;52.508;13.236;2023-05-07T11:44:19;0.10;;;0.10;;
20826;SDS011;10574;52.508;13.236;2023-05-07T11:46:46;0.30;;;0.30;;
20826;SDS011;10574;52.508;13.236;2023-05-07T11:49:15;0.27;;;0.27;;
20826;SDS011;10574;52.508;13.236;2023-05-07T11:51:43;0.57;;;0.57;;
20826;SDS011;10574;52.508;13.236;2023-05-07T11:54:14;0.30;;;0.30;;
20826;SDS011;10574;52.508;13.236;2023-05-07T11:56:44;0.10;;;0.10;;
20826;SDS011;10574;52.508;13.236;2023-05-07T11:59:12;0.00;;;0.00;;
20826;SDS011;10574;52.508;13.236;2023-05-07T12:01:44;0.60;;;0.43;;
20826;SDS011;10574;52.508;13.236;2023-05-07T12:04:12;0.30;;;0.30;;
20826;SDS011;10574;52.508;13.236;2023-05-07T12:06:40;0.30;;;0.30;;
20826;SDS011;10574;52.508;13.236;2023-05-07T12:09:08;0.10;;;0.10;;
20826;SDS011;10574;52.508;13.236;2023-05-07T12:11:37;1.60;;;0.40;;
20826;SDS011;10574;52.508;13.236;2023-05-07T12:14:05;0.17;;;0.17;;
20826;SDS011;10574;52.508;13.236;2023-05-07T12:16:33;0.53;;;0.43;;
20826;SDS011;10574;52.508;13.236;2023-05-07T12:19:01;0.83;;;0.47;;
20826;SDS011;10574;52.508;13.236;2023-05-07T12:21:29;1.03;;;0.47;;
20826;SDS011;10574;52.508;13.236;2023-05-07T12:23:57;2.53;;;0.30;;
20826;SDS011;10574;52.508;13.236;2023-05-07T12:26:24;0.20;;;0.20;;
20826;SDS011;10574;52.508;13.236;2023-05-07T12:28:52;0.10;;;0.10;;
20826;SDS011;10574;52.508;13.236;2023-05-07T12:31:20;0.20;;;0.20;;
20826;SDS011;10574;52.508;13.236;2023-05-07T12:33:48;2.10;;;0.20;;
20826;SDS011;10574;52.508;13.236;2023-05-07T12:36:16;0.40;;;0.10;;
20826;SDS011;10574;52.508;13.236;2023-05-07T12:38:43;0.10;;;0.10;;
20826;SDS011;10574;52.508;13.236;2023-05-07T12:41:11;0.30;;;0.20;;
20826;SDS011;10574;52.508;13.236;2023-05-07T12:43:39;0.17;;;0.17;;
20826;SDS011;10574;52.508;13.236;2023-05-07T12:46:08;0.53;;;0.33;;
20826;SDS011;10574;52.508;13.236;2023-05-07T12:48:37;13.30;;;0.63;;
20826;SDS011;10574;52.508;13.236;2023-05-07T12:51:05;0.30;;;0.30;;
20826;SDS011;10574;52.508;13.236;2023-05-07T12:53:39;1.40;;;0.47;;
20826;SDS011;10574;52.508;13.236;2023-05-07T12:56:06;0.10;;;0.10;;
20826;SDS011;10574;52.508;13.236;2023-05-07T12:58:35;0.10;;;0.07;;
20826;SDS011;10574;52.508;13.236;2023-05-07T13:01:06;0.20;;;0.20;;
20826;SDS011;10574;52.508;13.236;2023-05-07T13:03:35;0.90;;;0.43;;
20826;SDS011;10574;52.508;13.236;2023-05-07T13:06:05;0.30;;;0.20;;
20826;SDS011;10574;52.508;13.236;2023-05-07T13:08:40;0.30;;;0.20;;
20826;SDS011;10574;52.508;13.236;2023-05-07T13:11:11;1.27;;;0.60;;
20826;SDS011;10574;52.508;13.236;2023-05-07T13:13:40;0.10;;;0.10;;
20826;SDS011;10574;52.508;13.236;2023-05-07T13:16:09;0.30;;;0.30;;
20826;SDS011;10574;52.508;13.236;2023-05-07T13:18:38;0.27;;;0.23;;
20826;SDS011;10574;52.508;13.236;2023-05-07T13:21:06;0.67;;;0.10;;
20826;SDS011;10574;52.508;13.236;2023-05-07T13:23:34;0.20;;;0.10;;
20826;SDS011;10574;52.508;13.236;2023-05-07T13:26:03;0.10;;;0.10;;
20826;SDS011;10574;52.508;13.236;2023-05-07T13:28:31;0.47;;;0.47;;
20826;SDS011;10574;52.508;13.236;2023-05-07T13:30:59;0.93;;;0.47;;
20826;SDS011;10574;52.508;13.236;2023-05-07T13:33:27;0.37;;;0.20;;
20826;SDS011;10574;52.508;13.236;2023-05-07T13:35:55;2.20;;;0.23;;
20826;SDS011;10574;52.508;13.236;2023-05-07T13:38:22;0.57;;;0.27;;
20826;SDS011;10574;52.508;13.236;2023-05-07T13:40:51;0.37;;;0.23;;
20826;SDS011;10574;52.508;13.236;2023-05-07T13:43:19;0.20;;;0.20;;
20826;SDS011;10574;52.508;13.236;2023-05-07T13:45:47;0.60;;;0.20;;
20826;SDS011;10574;52.508;13.236;2023-05-07T13:48:15;0.93;;;0.50;;
20826;SDS011;10574;52.508;13.236;2023-05-07T13:50:42;0.00;;;0.00;;
20826;SDS011;10574;52.508;13.236;2023-05-07T13:53:10;0.10;;;0.10;;
20826;SDS011;10574;52.508;13.236;2023-05-07T13:55:38;0.20;;;0.20;;
20826;SDS011;10574;52.508;13.236;2023-05-07T13:58:06;0.10;;;0.10;;
20826;SDS011;10574;52.508;13.236;2023-05-07T14:00:33;0.80;;;0.53;;
20826;SDS011;10574;52.508;13.236;2023-05-07T14:03:01;0.73;;;0.20;;
20826;SDS011;10574;52.508;13.236;2023-05-07T14:05:29;0.23;;;0.23;;
20826;SDS011;10574;52.508;13.236;2023-05-07T14:07:57;0.87;;;0.27;;
20826;SDS011;10574;52.508;13.236;2023-05-07T14:10:25;0.43;;;0.30;;
20826;SDS011;10574;52.508;13.236;2023-05-07T14:12:53;0.77;;;0.37;;
20826;SDS011;10574;52.508;13.236;2023-05-07T14:15:21;0.03;;;0.03;;
20826;SDS011;10574;52.508;13.236;2023-05-07T14:17:49;0.33;;;0.20;;
20826;SDS011;10574;52.508;13.236;2023-05-07T14:20:16;0.43;;;0.43;;
20826;SDS011;10574;52.508;13.236;2023-05-07T14:22:44;0.47;;;0.43;;
20826;SDS011;10574;52.508;13.236;2023-05-07T14:25:12;0.47;;;0.20;;
20826;SDS011;10574;52.508;13.236;2023-05-07T14:27:40;0.10;;;0.10;;
20826;SDS011;10574;52.508;13.236;2023-05-07T14:30:07;0.20;;;0.20;;
20826;SDS011;10574;52.508;13.236;2023-05-07T14:32:35;3.90;;;0.50;;
20826;SDS011;10574;52.508;13.236;2023-05-07T14:35:03;0.00;;;0.00;;
20826;SDS011;10574;52.508;13.236;2023-05-07T14:37:31;0.40;;;0.27;;
20826;SDS011;10574;52.508;13.236;2023-05-07T14:39:59;2.87;;;0.50;;
20826;SDS011;10574;52.508;13.236;2023-05-07T14:42:27;0.20;;;0.20;;
20826;SDS011;10574;52.508;13.236;2023-05-07T14:44:54;0.83;;;0.37;;
20826;SDS011;10574;52.508;13.236;2023-05-07T14:47:22;0.10;;;0.10;;
20826;SDS011;10574;52.508;13.236;2023-05-07T14:49:50;0.30;;;0.30;;
20826;SDS011;10574;52.508;13.236;2023-05-07T14:52:18;0.00;;;0.00;;
20826;SDS011;10574;52.508;13.236;2023-05-07T14:54:46;0.07;;;0.07;;
20826;SDS011;10574;52.508;13.236;2023-05-07T14:57:14;2.03;;;0.60;;
20826;SDS011;10574;52.508;13.236;2023-05-07T14:59:43;2.30;;;0.57;;